sensor_id;sensor_type;location;lat;lon;timestamp;temperature;humidity
41294;DHT22;27037;52.010;4.446;2023-02-01T00:00:14;7.40;99.90
41294;DHT22;27037;52.010;4.446;2023-02-01T00:02:40;7.40;99.90
41294;DHT22;27037;52.010;4.446;2023-02-01T00:05:09;7.40;99.90
41294;DHT22;27037;52.010;4.446;2023-02-01T00:07:36;7.40;99.90
41294;DHT22;27037;52.010;4.446;2023-02-01T00:10:03;7.40;99.90
41294;DHT22;27037;52.010;4.446;2023-02-01T00:12:29;7.40;99.90
41294;DHT22;27037;52.010;4.446;2023-02-01T00:14:55;7.40;99.90
41294;DHT22;27037;52.010;4.446;2023-02-01T00:17:21;7.40;99.90
41294;DHT22;27037;52.010;4.446;2023-02-01T00:19:46;7.40;99.90
41294;DHT22;27037;52.010;4.446;2023-02-01T00:22:12;7.40;99.90
41294;DHT22;27037;52.010;4.446;2023-02-01T00:24:38;7.40;99.90
41294;DHT22;27037;52.010;4.446;2023-02-01T00:27:03;7.40;99.90
41294;DHT22;27037;52.010;4.446;2023-02-01T00:29:29;7.30;99.90
41294;DHT22;27037;52.010;4.446;2023-02-01T00:31:54;7.40;99.90
41294;DHT22;27037;52.010;4.446;2023-02-01T00:34:20;7.40;99.90
41294;DHT22;27037;52.010;4.446;2023-02-01T00:36:46;7.40;99.90
41294;DHT22;27037;52.010;4.446;2023-02-01T00:39:12;7.40;99.90
41294;DHT22;27037;52.010;4.446;2023-02-01T00:41:38;7.40;99.90
41294;DHT22;27037;52.010;4.446;2023-02-01T00:44:04;7.40;99.90
41294;DHT22;27037;52.010;4.446;2023-02-01T00:46:29;7.50;99.90
41294;DHT22;27037;52.010;4.446;2023-02-01T00:48:55;7.40;99.90
41294;DHT22;27037;52.010;4.446;2023-02-01T00:51:27;7.40;99.90
41294;DHT22;27037;52.010;4.446;2023-02-01T00:53:53;7.40;99.90
41294;DHT22;27037;52.010;4.446;2023-02-01T00:56:19;7.40;99.90
41294;DHT22;27037;52.010;4.446;2023-02-01T00:58:44;7.40;99.90
41294;DHT22;27037;52.010;4.446;2023-02-01T01:01:14;7.40;99.90
41294;DHT22;27037;52.010;4.446;2023-02-01T01:03:42;7.40;99.90
41294;DHT22;27037;52.010;4.446;2023-02-01T01:06:10;7.40;99.90
41294;DHT22;27037;52.010;4.446;2023-02-01T01:08:37;7.40;99.90
41294;DHT22;27037;52.010;4.446;2023-02-01T01:11:14;7.40;99.90
41294;DHT22;27037;52.010;4.446;2023-02-01T01:13:41;7.40;99.90
41294;DHT22;27037;52.010;4.446;2023-02-01T01:16:09;7.40;99.90
41294;DHT22;27037;52.010;4.446;2023-02-01T01:18:35;7.40;99.90
41294;DHT22;27037;52.010;4.446;2023-02-01T01:21:01;7.40;99.90
41294;DHT22;27037;52.010;4.446;2023-02-01T01:23:27;7.40;99.90
41294;DHT22;27037;52.010;4.446;2023-02-01T01:25:53;7.50;99.90
41294;DHT22;27037;52.010;4.446;2023-02-01T01:28:19;7.50;99.90
41294;DHT22;27037;52.010;4.446;2023-02-01T01:30:44;7.50;99.90
41294;DHT22;27037;52.010;4.446;2023-02-01T01:33:10;7.50;99.90
41294;DHT22;27037;52.010;4.446;2023-02-01T01:35:36;7.50;99.90
41294;DHT22;27037;52.010;4.446;2023-02-01T01:38:02;7.50;99.90
41294;DHT22;27037;52.010;4.446;2023-02-01T01:40:29;7.50;99.90
41294;DHT22;27037;52.010;4.446;2023-02-01T01:42:56;7.50;99.90
41294;DHT22;27037;52.010;4.446;2023-02-01T01:45:35;7.40;99.90
41294;DHT22;27037;52.010;4.446;2023-02-01T01:50:49;7.50;99.90
41294;DHT22;27037;52.010;4.446;2023-02-01T01:53:22;7.50;99.90
41294;DHT22;27037;52.010;4.446;2023-02-01T01:55:51;7.40;99.90
41294;DHT22;27037;52.010;4.446;2023-02-01T01:58:22;7.40;99.90
41294;DHT22;27037;52.010;4.446;2023-02-01T02:00:48;7.40;99.90
41294;DHT22;27037;52.010;4.446;2023-02-01T02:03:30;7.40;99.90
41294;DHT22;27037;52.010;4.446;2023-02-01T02:05:59;7.40;99.90
41294;DHT22;27037;52.010;4.446;2023-02-01T02:08:26;7.40;99.90
41294;DHT22;27037;52.010;4.446;2023-02-01T02:10:53;7.40;99.90
41294;DHT22;27037;52.010;4.446;2023-02-01T02:13:38;7.50;99.90
41294;DHT22;27037;52.010;4.446;2023-02-01T02:16:33;7.50;99.90
41294;DHT22;27037;52.010;4.446;2023-02-01T02:35:56;7.50;99.90
41294;DHT22;27037;52.010;4.446;2023-02-01T02:38:35;7.50;99.90
41294;DHT22;27037;52.010;4.446;2023-02-01T02:52:07;7.60;99.90
41294;DHT22;27037;52.010;4.446;2023-02-01T02:54:56;7.60;99.90
41294;DHT22;27037;52.010;4.446;2023-02-01T02:57:24;7.60;99.90
41294;DHT22;27037;52.010;4.446;2023-02-01T03:00:12;7.70;99.90
41294;DHT22;27037;52.010;4.446;2023-02-01T03:02:58;7.60;99.90
41294;DHT22;27037;52.010;4.446;2023-02-01T03:05:46;7.70;99.90
41294;DHT22;27037;52.010;4.446;2023-02-01T03:08:29;7.60;99.90
41294;DHT22;27037;52.010;4.446;2023-02-01T03:13:45;7.70;99.90
41294;DHT22;27037;52.010;4.446;2023-02-01T03:16:23;7.60;99.90
41294;DHT22;27037;52.010;4.446;2023-02-01T03:18:59;7.60;99.90
41294;DHT22;27037;52.010;4.446;2023-02-01T03:24:01;7.50;99.90
41294;DHT22;27037;52.010;4.446;2023-02-01T03:26:30;7.50;99.90
41294;DHT22;27037;52.010;4.446;2023-02-01T03:29:02;7.50;99.90
41294;DHT22;27037;52.010;4.446;2023-02-01T03:31:31;7.50;99.90
41294;DHT22;27037;52.010;4.446;2023-02-01T03:33:57;7.50;99.90
41294;DHT22;27037;52.010;4.446;2023-02-01T03:36:58;7.40;99.90
41294;DHT22;27037;52.010;4.446;2023-02-01T03:39:36;7.40;99.90
41294;DHT22;27037;52.010;4.446;2023-02-01T03:42:09;7.40;99.90
41294;DHT22;27037;52.010;4.446;2023-02-01T03:47:35;7.40;99.90
41294;DHT22;27037;52.010;4.446;2023-02-01T03:50:16;7.40;99.90
41294;DHT22;27037;52.010;4.446;2023-02-01T03:53:03;7.40;99.90
41294;DHT22;27037;52.010;4.446;2023-02-01T03:55:31;7.40;99.90
41294;DHT22;27037;52.010;4.446;2023-02-01T03:58:14;7.40;99.90
41294;DHT22;27037;52.010;4.446;2023-02-01T04:00:45;7.30;99.90
41294;DHT22;27037;52.010;4.446;2023-02-01T04:03:11;7.30;99.90
41294;DHT22;27037;52.010;4.446;2023-02-01T04:05:37;7.40;99.90
41294;DHT22;27037;52.010;4.446;2023-02-01T04:08:03;7.30;99.90
41294;DHT22;27037;52.010;4.446;2023-02-01T04:10:30;7.30;99.90
41294;DHT22;27037;52.010;4.446;2023-02-01T04:12:56;7.30;99.90
41294;DHT22;27037;52.010;4.446;2023-02-01T04:15:22;7.30;99.90
41294;DHT22;27037;52.010;4.446;2023-02-01T04:17:47;7.30;99.90
41294;DHT22;27037;52.010;4.446;2023-02-01T04:20:13;7.30;99.90
41294;DHT22;27037;52.010;4.446;2023-02-01T04:22:38;7.30;99.90
41294;DHT22;27037;52.010;4.446;2023-02-01T04:25:04;7.40;99.90
41294;DHT22;27037;52.010;4.446;2023-02-01T04:27:31;7.40;99.90
41294;DHT22;27037;52.010;4.446;2023-02-01T04:29:57;7.40;99.90
41294;DHT22;27037;52.010;4.446;2023-02-01T04:32:22;7.40;99.90
41294;DHT22;27037;52.010;4.446;2023-02-01T04:34:48;7.40;99.90
41294;DHT22;27037;52.010;4.446;2023-02-01T04:37:13;7.40;99.90
41294;DHT22;27037;52.010;4.446;2023-02-01T04:39:39;7.40;99.90
41294;DHT22;27037;52.010;4.446;2023-02-01T04:42:05;7.30;99.90
41294;DHT22;27037;52.010;4.446;2023-02-01T04:44:30;7.40;99.90
41294;DHT22;27037;52.010;4.446;2023-02-01T04:46:56;7.40;99.90
41294;DHT22;27037;52.010;4.446;2023-02-01T04:49:21;7.40;99.90
41294;DHT22;27037;52.010;4.446;2023-02-01T04:51:47;7.30;99.90
41294;DHT22;27037;52.010;4.446;2023-02-01T04:54:13;7.40;99.90
41294;DHT22;27037;52.010;4.446;2023-02-01T04:56:40;7.30;99.90
41294;DHT22;27037;52.010;4.446;2023-02-01T04:59:06;7.30;99.90
41294;DHT22;27037;52.010;4.446;2023-02-01T05:01:31;7.30;99.90
41294;DHT22;27037;52.010;4.446;2023-02-01T05:03:57;7.30;99.90
41294;DHT22;27037;52.010;4.446;2023-02-01T05:06:23;7.30;99.90
41294;DHT22;27037;52.010;4.446;2023-02-01T05:08:48;7.20;99.90
41294;DHT22;27037;52.010;4.446;2023-02-01T05:11:14;7.20;99.90
41294;DHT22;27037;52.010;4.446;2023-02-01T05:13:59;7.20;99.90
41294;DHT22;27037;52.010;4.446;2023-02-01T05:16:25;7.20;99.90
41294;DHT22;27037;52.010;4.446;2023-02-01T05:18:51;7.20;99.90
41294;DHT22;27037;52.010;4.446;2023-02-01T05:21:17;7.20;99.90
41294;DHT22;27037;52.010;4.446;2023-02-01T05:23:42;7.20;99.90
41294;DHT22;27037;52.010;4.446;2023-02-01T05:26:27;7.20;99.90
41294;DHT22;27037;52.010;4.446;2023-02-01T05:28:53;7.10;99.90
41294;DHT22;27037;52.010;4.446;2023-02-01T05:31:19;7.10;99.90
41294;DHT22;27037;52.010;4.446;2023-02-01T05:33:44;7.10;99.90
41294;DHT22;27037;52.010;4.446;2023-02-01T05:36:10;7.10;99.90
41294;DHT22;27037;52.010;4.446;2023-02-01T05:38:35;7.10;99.90
41294;DHT22;27037;52.010;4.446;2023-02-01T05:41:01;7.10;99.90
41294;DHT22;27037;52.010;4.446;2023-02-01T05:43:27;7.10;99.90
41294;DHT22;27037;52.010;4.446;2023-02-01T05:45:52;7.10;99.90
41294;DHT22;27037;52.010;4.446;2023-02-01T05:48:18;7.10;99.90
41294;DHT22;27037;52.010;4.446;2023-02-01T05:50:44;7.10;99.90
41294;DHT22;27037;52.010;4.446;2023-02-01T05:53:10;7.10;99.90
41294;DHT22;27037;52.010;4.446;2023-02-01T05:55:36;7.10;99.90
41294;DHT22;27037;52.010;4.446;2023-02-01T05:58:02;7.10;99.90
41294;DHT22;27037;52.010;4.446;2023-02-01T06:00:28;7.10;99.90
41294;DHT22;27037;52.010;4.446;2023-02-01T06:02:54;7.10;99.90
41294;DHT22;27037;52.010;4.446;2023-02-01T06:05:19;7.10;99.90
41294;DHT22;27037;52.010;4.446;2023-02-01T06:07:45;7.10;99.90
41294;DHT22;27037;52.010;4.446;2023-02-01T06:10:10;7.10;99.90
41294;DHT22;27037;52.010;4.446;2023-02-01T06:12:36;7.10;99.90
41294;DHT22;27037;52.010;4.446;2023-02-01T06:15:02;7.10;99.90
41294;DHT22;27037;52.010;4.446;2023-02-01T06:17:28;7.10;99.90
41294;DHT22;27037;52.010;4.446;2023-02-01T06:19:53;7.10;99.90
41294;DHT22;27037;52.010;4.446;2023-02-01T06:22:19;7.20;99.90
41294;DHT22;27037;52.010;4.446;2023-02-01T06:24:45;7.20;99.90
41294;DHT22;27037;52.010;4.446;2023-02-01T06:27:10;7.20;99.90
41294;DHT22;27037;52.010;4.446;2023-02-01T06:29:37;7.20;99.90
41294;DHT22;27037;52.010;4.446;2023-02-01T06:32:02;7.20;99.90
41294;DHT22;27037;52.010;4.446;2023-02-01T06:34:28;7.30;99.90
41294;DHT22;27037;52.010;4.446;2023-02-01T06:36:54;7.30;99.90
41294;DHT22;27037;52.010;4.446;2023-02-01T06:39:20;7.30;99.90
41294;DHT22;27037;52.010;4.446;2023-02-01T06:41:47;7.30;99.90
41294;DHT22;27037;52.010;4.446;2023-02-01T06:44:13;7.30;99.90
41294;DHT22;27037;52.010;4.446;2023-02-01T06:46:39;7.30;99.90
41294;DHT22;27037;52.010;4.446;2023-02-01T06:49:04;7.30;99.90
41294;DHT22;27037;52.010;4.446;2023-02-01T06:51:30;7.30;99.90
41294;DHT22;27037;52.010;4.446;2023-02-01T06:53:56;7.30;99.90
41294;DHT22;27037;52.010;4.446;2023-02-01T06:56:22;7.30;99.90
41294;DHT22;27037;52.010;4.446;2023-02-01T06:58:48;7.20;99.90
41294;DHT22;27037;52.010;4.446;2023-02-01T07:01:15;7.30;99.90
41294;DHT22;27037;52.010;4.446;2023-02-01T07:03:41;7.30;99.90
41294;DHT22;27037;52.010;4.446;2023-02-01T07:06:07;7.20;99.90
41294;DHT22;27037;52.010;4.446;2023-02-01T07:08:35;7.30;99.90
41294;DHT22;27037;52.010;4.446;2023-02-01T07:11:06;7.30;99.90
41294;DHT22;27037;52.010;4.446;2023-02-01T07:13:32;7.30;99.90
41294;DHT22;27037;52.010;4.446;2023-02-01T07:16:04;7.30;99.90
41294;DHT22;27037;52.010;4.446;2023-02-01T07:18:31;7.30;99.90
41294;DHT22;27037;52.010;4.446;2023-02-01T07:20:57;7.30;99.90
41294;DHT22;27037;52.010;4.446;2023-02-01T07:23:23;7.30;99.90
41294;DHT22;27037;52.010;4.446;2023-02-01T07:25:53;7.30;99.90
41294;DHT22;27037;52.010;4.446;2023-02-01T07:28:19;7.30;99.90
41294;DHT22;27037;52.010;4.446;2023-02-01T07:30:45;7.30;99.90
41294;DHT22;27037;52.010;4.446;2023-02-01T07:33:17;7.30;99.90
41294;DHT22;27037;52.010;4.446;2023-02-01T07:35:43;7.30;99.90
41294;DHT22;27037;52.010;4.446;2023-02-01T07:38:08;7.30;99.90
41294;DHT22;27037;52.010;4.446;2023-02-01T07:40:34;7.30;99.90
41294;DHT22;27037;52.010;4.446;2023-02-01T07:42:59;7.30;99.90
41294;DHT22;27037;52.010;4.446;2023-02-01T07:45:25;7.30;99.90
41294;DHT22;27037;52.010;4.446;2023-02-01T07:47:52;7.30;99.90
41294;DHT22;27037;52.010;4.446;2023-02-01T07:50:18;7.20;99.90
41294;DHT22;27037;52.010;4.446;2023-02-01T07:52:44;7.20;99.90
41294;DHT22;27037;52.010;4.446;2023-02-01T07:55:09;7.20;99.90
41294;DHT22;27037;52.010;4.446;2023-02-01T07:57:35;7.20;99.90
41294;DHT22;27037;52.010;4.446;2023-02-01T08:00:01;7.30;99.90
41294;DHT22;27037;52.010;4.446;2023-02-01T08:02:45;7.30;99.90
41294;DHT22;27037;52.010;4.446;2023-02-01T08:05:11;7.30;99.90
41294;DHT22;27037;52.010;4.446;2023-02-01T08:07:36;7.20;99.90
41294;DHT22;27037;52.010;4.446;2023-02-01T08:10:02;7.30;99.90
41294;DHT22;27037;52.010;4.446;2023-02-01T08:12:28;7.30;99.90
41294;DHT22;27037;52.010;4.446;2023-02-01T08:14:53;7.30;99.90
41294;DHT22;27037;52.010;4.446;2023-02-01T08:17:19;7.30;99.90
41294;DHT22;27037;52.010;4.446;2023-02-01T08:19:45;7.40;99.90
41294;DHT22;27037;52.010;4.446;2023-02-01T08:22:11;7.40;99.90
41294;DHT22;27037;52.010;4.446;2023-02-01T08:24:36;7.40;99.90
41294;DHT22;27037;52.010;4.446;2023-02-01T08:27:05;7.40;99.90
41294;DHT22;27037;52.010;4.446;2023-02-01T08:29:30;7.40;99.90
41294;DHT22;27037;52.010;4.446;2023-02-01T08:31:56;7.50;99.90
41294;DHT22;27037;52.010;4.446;2023-02-01T08:34:22;7.50;99.90
41294;DHT22;27037;52.010;4.446;2023-02-01T08:36:48;7.50;99.90
41294;DHT22;27037;52.010;4.446;2023-02-01T08:39:14;7.50;99.90
41294;DHT22;27037;52.010;4.446;2023-02-01T08:41:40;7.50;99.90
41294;DHT22;27037;52.010;4.446;2023-02-01T08:44:07;7.60;99.90
41294;DHT22;27037;52.010;4.446;2023-02-01T08:46:33;7.60;99.90
41294;DHT22;27037;52.010;4.446;2023-02-01T08:48:59;7.60;99.90
41294;DHT22;27037;52.010;4.446;2023-02-01T08:51:25;7.70;99.90
41294;DHT22;27037;52.010;4.446;2023-02-01T08:53:51;7.70;99.90
41294;DHT22;27037;52.010;4.446;2023-02-01T08:56:18;7.70;99.90
41294;DHT22;27037;52.010;4.446;2023-02-01T08:58:44;7.70;99.90
41294;DHT22;27037;52.010;4.446;2023-02-01T09:01:11;7.80;99.90
41294;DHT22;27037;52.010;4.446;2023-02-01T09:03:38;7.80;99.90
41294;DHT22;27037;52.010;4.446;2023-02-01T09:06:06;7.80;99.90
41294;DHT22;27037;52.010;4.446;2023-02-01T09:08:33;7.90;99.90
41294;DHT22;27037;52.010;4.446;2023-02-01T09:11:03;7.90;99.90
41294;DHT22;27037;52.010;4.446;2023-02-01T09:13:30;8.00;99.90
41294;DHT22;27037;52.010;4.446;2023-02-01T09:15:55;8.00;99.90
41294;DHT22;27037;52.010;4.446;2023-02-01T09:18:21;8.00;99.90
41294;DHT22;27037;52.010;4.446;2023-02-01T09:20:47;8.00;99.90
41294;DHT22;27037;52.010;4.446;2023-02-01T09:23:12;8.00;99.90
41294;DHT22;27037;52.010;4.446;2023-02-01T09:25:38;8.10;99.90
41294;DHT22;27037;52.010;4.446;2023-02-01T09:28:04;8.10;99.90
41294;DHT22;27037;52.010;4.446;2023-02-01T09:30:32;8.10;99.90
41294;DHT22;27037;52.010;4.446;2023-02-01T09:32:58;8.10;99.90
41294;DHT22;27037;52.010;4.446;2023-02-01T09:35:24;8.10;99.90
41294;DHT22;27037;52.010;4.446;2023-02-01T09:37:51;8.10;99.90
41294;DHT22;27037;52.010;4.446;2023-02-01T09:40:17;8.10;99.90
41294;DHT22;27037;52.010;4.446;2023-02-01T09:47:59;8.30;99.90
41294;DHT22;27037;52.010;4.446;2023-02-01T09:50:38;8.20;99.90
41294;DHT22;27037;52.010;4.446;2023-02-01T09:53:10;8.30;99.90
41294;DHT22;27037;52.010;4.446;2023-02-01T09:55:49;8.30;99.90
41294;DHT22;27037;52.010;4.446;2023-02-01T09:58:37;8.30;99.90
41294;DHT22;27037;52.010;4.446;2023-02-01T10:01:08;8.20;99.90
41294;DHT22;27037;52.010;4.446;2023-02-01T10:03:36;8.20;99.90
41294;DHT22;27037;52.010;4.446;2023-02-01T10:14:46;8.20;99.90
41294;DHT22;27037;52.010;4.446;2023-02-01T10:17:50;8.20;99.90
41294;DHT22;27037;52.010;4.446;2023-02-01T10:20:29;8.20;99.90
41294;DHT22;27037;52.010;4.446;2023-02-01T10:25:55;8.10;99.90
41294;DHT22;27037;52.010;4.446;2023-02-01T10:28:21;8.10;99.90
41294;DHT22;27037;52.010;4.446;2023-02-01T10:30:48;8.20;99.90
41294;DHT22;27037;52.010;4.446;2023-02-01T10:33:32;8.20;99.90
41294;DHT22;27037;52.010;4.446;2023-02-01T10:36:04;8.20;99.90
41294;DHT22;27037;52.010;4.446;2023-02-01T10:38:34;8.30;99.90
41294;DHT22;27037;52.010;4.446;2023-02-01T10:41:20;8.30;99.90
41294;DHT22;27037;52.010;4.446;2023-02-01T10:43:49;8.30;99.90
41294;DHT22;27037;52.010;4.446;2023-02-01T10:46:16;8.40;99.90
41294;DHT22;27037;52.010;4.446;2023-02-01T10:48:42;8.40;99.90
41294;DHT22;27037;52.010;4.446;2023-02-01T10:53:57;8.50;99.90
41294;DHT22;27037;52.010;4.446;2023-02-01T10:56:26;8.50;99.90
41294;DHT22;27037;52.010;4.446;2023-02-01T10:59:03;8.60;99.90
41294;DHT22;27037;52.010;4.446;2023-02-01T11:01:40;8.60;99.90
41294;DHT22;27037;52.010;4.446;2023-02-01T11:04:25;8.60;99.90
41294;DHT22;27037;52.010;4.446;2023-02-01T11:07:17;8.70;99.90
41294;DHT22;27037;52.010;4.446;2023-02-01T11:09:50;8.60;99.90
41294;DHT22;27037;52.010;4.446;2023-02-01T11:14:50;8.70;99.90
41294;DHT22;27037;52.010;4.446;2023-02-01T11:19:55;8.70;99.90
41294;DHT22;27037;52.010;4.446;2023-02-01T11:22:21;8.70;99.90
41294;DHT22;27037;52.010;4.446;2023-02-01T11:24:47;8.70;99.90
41294;DHT22;27037;52.010;4.446;2023-02-01T11:27:19;8.70;99.90
41294;DHT22;27037;52.010;4.446;2023-02-01T11:29:50;8.70;99.90
41294;DHT22;27037;52.010;4.446;2023-02-01T11:32:18;8.70;99.90
41294;DHT22;27037;52.010;4.446;2023-02-01T11:35:04;8.70;99.90
41294;DHT22;27037;52.010;4.446;2023-02-01T11:37:37;8.70;99.90
41294;DHT22;27037;52.010;4.446;2023-02-01T11:40:23;8.70;99.90
41294;DHT22;27037;52.010;4.446;2023-02-01T11:43:08;8.70;99.90
41294;DHT22;27037;52.010;4.446;2023-02-01T11:45:35;8.70;99.90
41294;DHT22;27037;52.010;4.446;2023-02-01T11:48:08;8.70;99.90
41294;DHT22;27037;52.010;4.446;2023-02-01T12:19:39;8.70;99.90
41294;DHT22;27037;52.010;4.446;2023-02-01T12:44:12;8.80;99.90
41294;DHT22;27037;52.010;4.446;2023-02-01T12:47:03;8.80;99.90
41294;DHT22;27037;52.010;4.446;2023-02-01T12:49:50;8.80;99.90
41294;DHT22;27037;52.010;4.446;2023-02-01T12:52:23;8.80;99.90
41294;DHT22;27037;52.010;4.446;2023-02-01T12:57:49;8.90;99.90
41294;DHT22;27037;52.010;4.446;2023-02-01T13:03:00;8.90;99.90
41294;DHT22;27037;52.010;4.446;2023-02-01T13:05:54;9.00;99.90
41294;DHT22;27037;52.010;4.446;2023-02-01T13:08:25;8.90;99.90
41294;DHT22;27037;52.010;4.446;2023-02-01T13:11:00;8.90;99.90
41294;DHT22;27037;52.010;4.446;2023-02-01T13:16:30;8.90;99.90
41294;DHT22;27037;52.010;4.446;2023-02-01T13:19:10;9.10;99.90
41294;DHT22;27037;52.010;4.446;2023-02-01T13:21:46;9.10;99.90
41294;DHT22;27037;52.010;4.446;2023-02-01T13:26:58;9.00;99.90
41294;DHT22;27037;52.010;4.446;2023-02-01T13:29:25;9.00;99.90
41294;DHT22;27037;52.010;4.446;2023-02-01T13:31:54;9.00;99.90
41294;DHT22;27037;52.010;4.446;2023-02-01T13:40:16;8.90;99.90
41294;DHT22;27037;52.010;4.446;2023-02-01T13:45:22;8.90;99.90
41294;DHT22;27037;52.010;4.446;2023-02-01T13:47:51;8.90;99.90
41294;DHT22;27037;52.010;4.446;2023-02-01T13:50:36;8.90;99.90
41294;DHT22;27037;52.010;4.446;2023-02-01T13:55:39;8.90;99.90
41294;DHT22;27037;52.010;4.446;2023-02-01T13:58:17;8.90;99.90
41294;DHT22;27037;52.010;4.446;2023-02-01T14:00:43;8.90;99.90
41294;DHT22;27037;52.010;4.446;2023-02-01T14:03:10;8.90;99.90
41294;DHT22;27037;52.010;4.446;2023-02-01T14:10:52;8.90;99.90
41294;DHT22;27037;52.010;4.446;2023-02-01T14:13:34;8.90;99.90
41294;DHT22;27037;52.010;4.446;2023-02-01T14:21:19;8.90;99.90
41294;DHT22;27037;52.010;4.446;2023-02-01T14:26:25;8.90;99.90
41294;DHT22;27037;52.010;4.446;2023-02-01T14:28:59;8.90;99.90
41294;DHT22;27037;52.010;4.446;2023-02-01T14:31:54;8.90;99.90
41294;DHT22;27037;52.010;4.446;2023-02-01T14:37:01;8.90;99.90
41294;DHT22;27037;52.010;4.446;2023-02-01T14:44:55;9.00;99.90
41294;DHT22;27037;52.010;4.446;2023-02-01T14:52:40;9.00;99.90
41294;DHT22;27037;52.010;4.446;2023-02-01T14:55:35;9.00;99.90
41294;DHT22;27037;52.010;4.446;2023-02-01T14:58:05;9.00;99.90
41294;DHT22;27037;52.010;4.446;2023-02-01T15:00:32;9.00;99.90
41294;DHT22;27037;52.010;4.446;2023-02-01T15:03:41;9.00;99.90
41294;DHT22;27037;52.010;4.446;2023-02-01T15:06:26;9.00;99.90
41294;DHT22;27037;52.010;4.446;2023-02-01T15:09:12;9.00;99.90
41294;DHT22;27037;52.010;4.446;2023-02-01T15:11:58;9.00;99.90
41294;DHT22;27037;52.010;4.446;2023-02-01T15:14:26;9.00;99.90
41294;DHT22;27037;52.010;4.446;2023-02-01T15:16:52;9.00;99.90
41294;DHT22;27037;52.010;4.446;2023-02-01T15:19:22;9.00;99.90
41294;DHT22;27037;52.010;4.446;2023-02-01T15:21:51;9.10;99.90
41294;DHT22;27037;52.010;4.446;2023-02-01T15:24:29;9.10;99.90
41294;DHT22;27037;52.010;4.446;2023-02-01T15:27:01;9.10;99.90
41294;DHT22;27037;52.010;4.446;2023-02-01T15:29:29;9.10;99.90
41294;DHT22;27037;52.010;4.446;2023-02-01T15:31:58;9.10;99.90
41294;DHT22;27037;52.010;4.446;2023-02-01T15:34:47;9.10;99.90
41294;DHT22;27037;52.010;4.446;2023-02-01T15:37:14;9.10;99.90
41294;DHT22;27037;52.010;4.446;2023-02-01T15:40:04;9.10;99.90
41294;DHT22;27037;52.010;4.446;2023-02-01T15:42:32;9.10;99.90
41294;DHT22;27037;52.010;4.446;2023-02-01T15:44:58;9.10;99.90
41294;DHT22;27037;52.010;4.446;2023-02-01T15:47:27;9.20;99.90
41294;DHT22;27037;52.010;4.446;2023-02-01T15:49:56;9.20;99.90
41294;DHT22;27037;52.010;4.446;2023-02-01T15:52:37;9.10;99.90
41294;DHT22;27037;52.010;4.446;2023-02-01T15:55:17;9.20;99.90
41294;DHT22;27037;52.010;4.446;2023-02-01T15:57:43;9.20;99.90
41294;DHT22;27037;52.010;4.446;2023-02-01T16:00:25;9.20;99.90
41294;DHT22;27037;52.010;4.446;2023-02-01T16:02:57;9.20;99.90
41294;DHT22;27037;52.010;4.446;2023-02-01T16:05:35;9.20;99.90
41294;DHT22;27037;52.010;4.446;2023-02-01T16:08:23;9.20;99.90
41294;DHT22;27037;52.010;4.446;2023-02-01T16:10:51;9.20;99.90
41294;DHT22;27037;52.010;4.446;2023-02-01T16:13:18;9.20;99.90
41294;DHT22;27037;52.010;4.446;2023-02-01T16:15:45;9.20;99.90
41294;DHT22;27037;52.010;4.446;2023-02-01T16:18:12;9.20;99.90
41294;DHT22;27037;52.010;4.446;2023-02-01T16:20:39;9.20;99.90
41294;DHT22;27037;52.010;4.446;2023-02-01T16:23:06;9.20;99.90
41294;DHT22;27037;52.010;4.446;2023-02-01T16:25:32;9.20;99.90
41294;DHT22;27037;52.010;4.446;2023-02-01T16:27:58;9.20;99.90
41294;DHT22;27037;52.010;4.446;2023-02-01T16:30:24;9.20;99.90
41294;DHT22;27037;52.010;4.446;2023-02-01T16:32:57;9.20;99.90
41294;DHT22;27037;52.010;4.446;2023-02-01T16:35:34;9.20;99.90
41294;DHT22;27037;52.010;4.446;2023-02-01T16:38:04;9.20;99.90
41294;DHT22;27037;52.010;4.446;2023-02-01T16:40:37;9.20;99.90
41294;DHT22;27037;52.010;4.446;2023-02-01T16:43:12;9.20;99.90
41294;DHT22;27037;52.010;4.446;2023-02-01T16:45:38;9.20;99.90
41294;DHT22;27037;52.010;4.446;2023-02-01T16:48:05;9.20;99.90
41294;DHT22;27037;52.010;4.446;2023-02-01T16:50:32;9.20;99.90
41294;DHT22;27037;52.010;4.446;2023-02-01T16:52:58;9.20;99.90
41294;DHT22;27037;52.010;4.446;2023-02-01T16:55:24;9.20;99.90
41294;DHT22;27037;52.010;4.446;2023-02-01T16:57:51;9.20;99.90
41294;DHT22;27037;52.010;4.446;2023-02-01T17:00:17;9.20;99.90
41294;DHT22;27037;52.010;4.446;2023-02-01T17:02:44;9.20;99.90
41294;DHT22;27037;52.010;4.446;2023-02-01T17:05:11;9.10;99.90
41294;DHT22;27037;52.010;4.446;2023-02-01T17:07:38;9.10;99.90
41294;DHT22;27037;52.010;4.446;2023-02-01T17:10:05;9.10;99.90
41294;DHT22;27037;52.010;4.446;2023-02-01T17:12:32;9.10;99.90
41294;DHT22;27037;52.010;4.446;2023-02-01T17:14:58;9.00;99.90
41294;DHT22;27037;52.010;4.446;2023-02-01T17:17:33;9.00;99.90
41294;DHT22;27037;52.010;4.446;2023-02-01T17:20:01;9.00;99.90
41294;DHT22;27037;52.010;4.446;2023-02-01T17:22:28;9.00;99.90
41294;DHT22;27037;52.010;4.446;2023-02-01T17:24:54;9.00;99.90
41294;DHT22;27037;52.010;4.446;2023-02-01T17:27:22;9.00;99.90
41294;DHT22;27037;52.010;4.446;2023-02-01T17:29:47;9.00;99.90
41294;DHT22;27037;52.010;4.446;2023-02-01T17:32:19;9.00;99.90
41294;DHT22;27037;52.010;4.446;2023-02-01T17:34:45;9.00;99.90
41294;DHT22;27037;52.010;4.446;2023-02-01T17:37:25;9.00;99.90
41294;DHT22;27037;52.010;4.446;2023-02-01T17:39:51;9.00;99.90
41294;DHT22;27037;52.010;4.446;2023-02-01T17:42:20;9.00;99.90
41294;DHT22;27037;52.010;4.446;2023-02-01T17:44:46;9.00;99.90
41294;DHT22;27037;52.010;4.446;2023-02-01T17:47:12;9.10;99.90
41294;DHT22;27037;52.010;4.446;2023-02-01T17:49:38;9.10;99.90
41294;DHT22;27037;52.010;4.446;2023-02-01T17:52:05;9.10;99.90
41294;DHT22;27037;52.010;4.446;2023-02-01T17:54:32;9.10;99.90
41294;DHT22;27037;52.010;4.446;2023-02-01T17:56:57;9.10;99.90
41294;DHT22;27037;52.010;4.446;2023-02-01T17:59:25;9.00;99.90
41294;DHT22;27037;52.010;4.446;2023-02-01T18:01:51;9.00;99.90
41294;DHT22;27037;52.010;4.446;2023-02-01T18:04:18;9.10;99.90
41294;DHT22;27037;52.010;4.446;2023-02-01T18:06:44;9.10;99.90
41294;DHT22;27037;52.010;4.446;2023-02-01T18:09:10;9.10;99.90
41294;DHT22;27037;52.010;4.446;2023-02-01T18:11:37;9.10;99.90
41294;DHT22;27037;52.010;4.446;2023-02-01T18:14:02;9.10;99.90
41294;DHT22;27037;52.010;4.446;2023-02-01T18:16:30;9.00;99.90
41294;DHT22;27037;52.010;4.446;2023-02-01T18:18:56;9.10;99.90
41294;DHT22;27037;52.010;4.446;2023-02-01T18:21:41;9.00;99.90
41294;DHT22;27037;52.010;4.446;2023-02-01T18:24:12;9.10;99.90
41294;DHT22;27037;52.010;4.446;2023-02-01T18:26:39;9.00;99.90
41294;DHT22;27037;52.010;4.446;2023-02-01T18:29:05;9.10;99.90
41294;DHT22;27037;52.010;4.446;2023-02-01T18:31:31;9.10;99.90
41294;DHT22;27037;52.010;4.446;2023-02-01T18:33:59;9.10;99.90
41294;DHT22;27037;52.010;4.446;2023-02-01T18:36:25;9.10;99.90
41294;DHT22;27037;52.010;4.446;2023-02-01T18:38:52;9.00;99.90
41294;DHT22;27037;52.010;4.446;2023-02-01T18:41:22;9.10;99.90
41294;DHT22;27037;52.010;4.446;2023-02-01T18:43:50;9.10;99.90